Airfield :
LOGIN :

Register | Disclaimer

   EN    FR    IT 

 










Legend :    VFR   Marginal VFR   IFR   Intensive IFR   Very Intensive IFR
Visi :
Ceiling :
>= 8 km
>= 3000ft
5 to 8 km
1000 to 3000 ft
1500m to 5 km
500 to 1000 ft
800 to 1500m
200 to 500 ft
< 800m
< 200 ft
Symbols :   Thunderstorms  Fog  Heavy snow  Heavy precipitations  Wind > 20 kt
SIGMETs :     Misc.  Thunderstorms  Icing  Turbulence  Mountain Waves  Volcanic Ashes






- Airport Elevation : 72 ft
- IATA code : UDE


EHVK - Volkel Airbase

CURRENT METAR :
  • 021155Z AUTO 17010KT 120V270 9999 BKN057 OVC220 23/09 Q1021 BLU

EXPIRED METARs :
  • 021125Z AUTO 18008KT 110V220 9999 BKN053 BKN060 BKN240 22/10 Q1021 BLU
  • 021055Z AUTO 19006KT 130V230 9999 SCT048 BKN055 BKN062 22/11 Q1021 BLU
  • 021025Z AUTO VRB06G16KT 9999 FEW047 21/10 Q1021 BLU
  • 020955Z AUTO 17007KT 130V240 9999 SCT045 21/11 Q1021 BLU
  • 020925Z AUTO VRB07KT 9999 NCD 21/11 Q1022 BLU

TAF TAF EHVK
Valid from the 02 at 09:00 until the 02 at 21:00 UTC


020802Z 0209/0221 21007KT 9999 SCT040
BECMG 0219/0221 VRB02KT



MET'MAP, your aeronautical weather chart ! - Copyright ORBIFLY December 2007 - Disclaimer

ORBIFLY MET'MAP TEAM :

Programming & Development : Alexandra Zaïnal
Original concept : Baudouin d'Aumeries
Technical & hardware support : Manuel Goepfert
Assistance : Marc-Olivier Méhu




SOURCES & CREDITS :

   NOAA